»·PEaware :: NKS1216 KLAS-KSAN

NKS1216 :: KLAS-KSAN

FLIGHT INFORMATION

Flight Status: Arrived
Operator:
Spirit Airlines
More flights by this operator :: More flights under this callsign
Pilot: Luc P. (3613)
Aircraft: AIRBUS A321
(A321)
More flights by this aircraft type
Origin: KLAS McCarran Intl
United States
Destination: KSAN San Diego Intl-Lindbergh
United States
More flights between these airports :: More routes between these airports
Route: BOACH8 LVELL LUCKI1
File this flight plan on PilotEdge
Remarks:
Altitude:
(Current/Filed)
28,000ft
Speed:
(Current/Filed)
437kts
Departed: 03-Jan-21 06:27 PM
Arrived: 03-Jan-21 07:14 PM
Distance/Time
Traveled:
225nm/0:47
Distance/Time
To Go:
Arrived

Flight Plot

Page will automatically refresh every two minutes.

Flight plan parsing failed; only flown route is shown


Map Options




Map Legend


Flown Route
Filed Route
Departure Airport
Arrival Airport
Navaid (VOR, NDB)
Fix

Horizontal Profiles

Position Reports

Time Latitude Longitude Heading Altitude Ground
Speed
03-Jan-21 18:10 36.084860 -115.153965 336 2117ft 0kts
03-Jan-21 18:11 36.084860 -115.153965 336 2117ft 0kts
03-Jan-21 18:12 36.084860 -115.153965 336 2117ft 0kts
03-Jan-21 18:13 36.084860 -115.153965 336 2117ft 0kts
03-Jan-21 18:14 36.084860 -115.153965 336 2117ft 0kts
03-Jan-21 18:15 36.084860 -115.153965 336 2117ft 0kts
03-Jan-21 18:16 36.084860 -115.153964 336 2117ft 0kts
03-Jan-21 18:17 36.084804 -115.153935 336 2117ft 2kts
03-Jan-21 18:18 36.084257 -115.153635 336 2117ft 0kts
03-Jan-21 18:19 36.084183 -115.153295 244 2116ft 0kts
03-Jan-21 18:20 36.084183 -115.153295 244 2116ft 0kts
03-Jan-21 18:21 36.083986 -115.153808 244 2118ft 3kts
03-Jan-21 18:22 36.084133 -115.156426 335 2123ft 11kts
03-Jan-21 18:23 36.087096 -115.157873 14 2121ft 13kts
03-Jan-21 18:24 36.091960 -115.155111 24 2103ft 21kts
03-Jan-21 18:25 36.097337 -115.152073 22 2089ft 8kts
03-Jan-21 18:26 36.095067 -115.155577 204 2098ft 75kts
03-Jan-21 18:27 36.056415 -115.177303 203 3446ft 167kts
03-Jan-21 18:28 36.009144 -115.212427 238 4983ft 234kts
03-Jan-21 18:29 35.973202 -115.291267 224 6917ft 278kts
03-Jan-21 18:30 35.897463 -115.310189 185 9347ft 291kts
03-Jan-21 18:31 35.811324 -115.309750 176 11240ft 343kts
03-Jan-21 18:32 35.711012 -115.298052 177 13525ft 373kts
03-Jan-21 18:33 35.606485 -115.297001 185 16044ft 384kts
03-Jan-21 18:35 35.498067 -115.301454 185 18385ft 396kts
03-Jan-21 18:36 35.386675 -115.305865 186 20542ft 407kts
03-Jan-21 18:37 35.272318 -115.310383 186 22506ft 417kts
03-Jan-21 18:38 35.155024 -115.315012 186 24234ft 427kts
03-Jan-21 18:39 35.036087 -115.319653 186 26075ft 428kts
03-Jan-21 18:40 34.917329 -115.324304 187 27826ft 426kts
03-Jan-21 18:41 34.797341 -115.330324 192 28248ft 435kts
03-Jan-21 18:42 34.683776 -115.372599 205 28255ft 426kts
03-Jan-21 18:43 34.572480 -115.421673 204 28257ft 427kts
03-Jan-21 18:44 34.460943 -115.470337 204 28257ft 427kts
03-Jan-21 18:45 34.349408 -115.519145 206 28256ft 426kts
03-Jan-21 18:46 34.246914 -115.587142 216 28257ft 420kts
03-Jan-21 18:47 34.140743 -115.647393 205 28251ft 426kts
03-Jan-21 18:48 34.030123 -115.699770 205 28237ft 427kts
03-Jan-21 18:48 33.938035 -115.743093 205 28233ft 427kts
03-Jan-21 18:49 33.828736 -115.796141 206 27780ft 409kts
03-Jan-21 18:50 33.725349 -115.846035 204 26781ft 399kts
03-Jan-21 18:52 33.605940 -115.901731 204 25619ft 391kts
03-Jan-21 18:52 33.523426 -115.944161 218 24534ft 380kts
03-Jan-21 18:53 33.458230 -116.041358 237 22810ft 360kts
03-Jan-21 18:54 33.400625 -116.140993 237 21109ft 349kts
03-Jan-21 18:55 33.343109 -116.237008 228 19421ft 341kts
03-Jan-21 18:56 33.258446 -116.296369 208 17646ft 341kts
03-Jan-21 18:57 33.171009 -116.347162 208 15897ft 336kts
03-Jan-21 18:58 33.085316 -116.397201 209 14186ft 331kts
03-Jan-21 18:59 33.002057 -116.448466 217 12490ft 324kts
03-Jan-21 19:00 32.932747 -116.517133 223 10953ft 314kts
03-Jan-21 19:01 32.866147 -116.584087 222 9969ft 284kts
03-Jan-21 19:02 32.808355 -116.642199 222 8858ft 240kts
03-Jan-21 19:03 32.764962 -116.695439 241 7823ft 205kts
03-Jan-21 19:04 32.737427 -116.754006 242 6412ft 193kts
03-Jan-21 19:05 32.712507 -116.806611 243 6042ft 174kts
03-Jan-21 19:06 32.693770 -116.860770 251 5269ft 171kts
03-Jan-21 19:07 32.677630 -116.914377 252 4187ft 168kts
03-Jan-21 19:08 32.679457 -116.968740 287 3585ft 163kts
03-Jan-21 19:09 32.692758 -117.022693 287 2760ft 160kts
03-Jan-21 19:10 32.705372 -117.074111 287 2201ft 163kts
03-Jan-21 19:11 32.717147 -117.121431 286 1248ft 147kts
03-Jan-21 19:12 32.728431 -117.168319 285 347ft 145kts
03-Jan-21 19:13 32.735326 -117.196899 279 26ft 21kts
03-Jan-21 19:14 32.734865 -117.199208 269 26ft 6kts
03-Jan-21 19:15 32.735390 -117.202091 235 26ft 10kts
03-Jan-21 19:16 32.734159 -117.202667 196 26ft 3kts
03-Jan-21 19:17 32.733351 -117.201820 81 26ft 1kts
03-Jan-21 19:18 32.733355 -117.201785 81 26ft 0kts
03-Jan-21 19:19 32.733355 -117.201785 81 26ft 0kts
03-Jan-21 19:20 32.733355 -117.201785 81 26ft 0kts
03-Jan-21 19:21 32.733355 -117.201785 81 26ft 0kts
03-Jan-21 19:22 32.733355 -117.201785 81 26ft 0kts
03-Jan-21 19:23 32.733355 -117.201785 81 26ft 0kts
03-Jan-21 19:24 32.733355 -117.201785 81 26ft 0kts
03-Jan-21 19:25 32.733355 -117.201785 81 26ft 0kts
03-Jan-21 19:26 32.733355 -117.201785 81 26ft 0kts
03-Jan-21 19:27 32.733355 -117.201785 81 26ft 0kts

Navigation Log

Ident Type
Flight plan parsing failed, navigation log unavailable